Time;durP1;ratioP1;P1;durP2;ratioP2;P2;SDS_P1;SDS_P2;PMS_P1;PMS_P2;Temp;Humidity;BMP_temperature;BMP_pressure;BME280_temperature;BME280_humidity;BME280_pressure;Samples;Min_cycle;Max_cycle;Signal;HPM_P1;HPM_P2
2022/08/27 00:01:26;;;;;;;6.72;2.70;;;;;;;18.25;68.66;101618.41;5115179;28;20106;-56
2022/08/27 00:03:55;;;;;;;7.22;2.85;;;;;;;18.16;69.04;101622.72;5147699;27;20104;-56
2022/08/27 00:06:22;;;;;;;8.02;2.90;;;;;;;18.21;68.58;101627.72;5115109;28;20396;-56
2022/08/27 00:08:48;;;;;;;6.10;2.53;;;;;;;18.18;68.75;101623.44;5115319;28;20023;-56
2022/08/27 00:11:15;;;;;;;6.78;2.70;;;;;;;18.17;68.60;101611.81;5115320;28;20069;-56
2022/08/27 00:13:41;;;;;;;5.63;3.08;;;;;;;18.20;67.95;101626.00;5114638;28;20038;-56
2022/08/27 00:16:09;;;;;;;5.95;2.75;;;;;;;18.03;68.74;101617.50;5114845;28;20016;-56
2022/08/27 00:18:36;;;;;;;4.63;2.70;;;;;;;18.05;68.68;101606.59;5114630;27;20032;-56
2022/08/27 00:21:02;;;;;;;7.35;3.28;;;;;;;18.02;68.71;101612.22;5113420;28;20062;-56
2022/08/27 00:23:30;;;;;;;4.88;3.08;;;;;;;17.91;69.09;101610.41;5113441;28;20177;-56
2022/08/27 00:25:58;;;;;;;10.25;3.25;;;;;;;17.93;68.94;101614.69;5114614;28;20031;-56
2022/08/27 00:28:26;;;;;;;8.45;3.15;;;;;;;18.02;68.86;101610.38;5112858;28;20023;-56
2022/08/27 00:30:57;;;;;;;7.05;3.03;;;;;;;18.00;68.98;101614.19;5113263;28;20497;-56
2022/08/27 00:33:23;;;;;;;11.82;3.08;;;;;;;17.98;69.08;101602.69;5147384;27;20462;-56
2022/08/27 00:35:50;;;;;;;7.18;3.17;;;;;;;17.82;69.46;101600.41;5114391;28;20031;-56
2022/08/27 00:38:15;;;;;;;8.23;3.22;;;;;;;17.85;69.57;101602.84;5114515;28;20125;-56
2022/08/27 00:40:42;;;;;;;6.65;3.40;;;;;;;17.74;69.82;101603.69;5096197;28;20028;-56
2022/08/27 00:43:07;;;;;;;5.90;3.10;;;;;;;17.65;69.98;101605.28;5112545;28;20128;-56
2022/08/27 00:45:39;;;;;;;5.10;2.95;;;;;;;17.76;70.00;101608.94;5114215;28;20105;-56
2022/08/27 00:48:07;;;;;;;7.43;3.53;;;;;;;17.66;70.25;101603.47;5113982;28;20574;-56
2022/08/27 00:50:37;;;;;;;7.43;3.15;;;;;;;17.54;70.63;101608.00;5114698;28;20019;-56
2022/08/27 00:53:13;;;;;;;7.88;3.20;;;;;;;17.64;70.08;101598.19;5112757;28;20019;-56
2022/08/27 00:55:47;;;;;;;8.05;3.70;;;;;;;17.66;69.96;101600.75;5112742;28;20027;-56
2022/08/27 00:58:34;;;;;;;6.95;3.35;;;;;;;17.55;70.33;101615.06;5113645;28;20106;-56
2022/08/27 01:01:01;;;;;;;8.20;3.15;;;;;;;17.58;70.23;101601.38;5112572;28;20477;-56
2022/08/27 01:03:26;;;;;;;7.07;3.60;;;;;;;17.51;70.38;101588.56;5112626;28;20483;-56
2022/08/27 01:05:55;;;;;;;9.95;3.38;;;;;;;17.53;70.46;101598.22;5112691;28;20024;-56
2022/08/27 01:08:26;;;;;;;8.13;3.55;;;;;;;17.55;70.44;101598.94;5113812;28;20074;-56
2022/08/27 01:10:53;;;;;;;7.32;3.80;;;;;;;17.52;70.61;101593.81;5113745;28;20474;-56
2022/08/27 01:13:22;;;;;;;4.97;3.33;;;;;;;17.44;70.79;101601.63;5112052;28;20107;-56
2022/08/27 01:15:51;;;;;;;5.85;3.70;;;;;;;17.40;70.63;101601.03;5113569;28;20027;-57
2022/08/27 01:18:20;;;;;;;6.93;3.75;;;;;;;17.27;71.13;101599.44;5113673;28;20098;-56
2022/08/27 01:20:53;;;;;;;5.78;3.50;;;;;;;17.36;70.92;101596.88;5113564;28;20054;-56
2022/08/27 01:23:39;;;;;;;8.50;4.10;;;;;;;17.35;70.87;101600.53;5113461;28;20033;-56
2022/08/27 01:26:11;;;;;;;8.77;3.53;;;;;;;17.21;71.13;101601.63;5113432;28;20499;-56
2022/08/27 01:28:40;;;;;;;6.63;3.75;;;;;;;17.14;71.46;101594.16;5112908;28;20107;-56
2022/08/27 01:31:11;;;;;;;5.15;3.55;;;;;;;17.16;71.32;101595.75;5113235;28;20033;-56
2022/08/27 01:33:37;;;;;;;8.90;4.40;;;;;;;17.17;71.25;101593.94;5112076;28;20023;-56
2022/08/27 01:36:04;;;;;;;8.27;4.38;;;;;;;17.13;71.30;101587.94;5113203;28;20020;-56
2022/08/27 01:38:31;;;;;;;8.18;4.32;;;;;;;17.05;71.55;101587.69;5112017;28;20028;-56
2022/08/27 01:40:59;;;;;;;6.95;3.90;;;;;;;17.10;71.43;101598.09;5113229;28;20023;-56
2022/08/27 01:43:26;;;;;;;9.80;3.92;;;;;;;17.10;71.40;101592.72;5111531;28;20023;-56
2022/08/27 01:45:52;;;;;;;6.88;4.15;;;;;;;17.13;71.29;101592.47;5112723;28;20615;-56
2022/08/27 01:48:19;;;;;;;5.28;3.78;;;;;;;17.12;71.43;101593.44;5113097;27;20115;-56
2022/08/27 01:50:46;;;;;;;6.93;4.13;;;;;;;17.06;71.16;101592.09;5111997;28;20024;-56
2022/08/27 01:53:20;;;;;;;6.28;3.83;;;;;;;17.08;71.14;101592.81;5113070;28;20027;-56
2022/08/27 01:55:48;;;;;;;7.90;4.20;;;;;;;16.96;71.50;101596.47;5113015;28;20012;-56
2022/08/27 01:58:15;;;;;;;9.30;4.15;;;;;;;16.86;71.40;101576.69;5112158;28;20034;-56
2022/08/27 02:00:43;;;;;;;9.15;4.18;;;;;;;16.89;71.93;101595.25;5111615;28;20016;-56
2022/08/27 02:03:10;;;;;;;8.23;3.90;;;;;;;16.88;71.63;101590.84;5112744;28;20080;-56
2022/08/27 02:05:38;;;;;;;6.68;3.95;;;;;;;16.83;71.63;101582.28;5112691;28;20095;-56
2022/08/27 02:08:04;;;;;;;9.93;4.38;;;;;;;16.77;71.67;101589.00;5093896;28;20064;-56
2022/08/27 02:10:34;;;;;;;7.88;4.03;;;;;;;16.65;72.31;101580.03;5112740;28;20032;-56
2022/08/27 02:13:00;;;;;;;7.05;4.43;;;;;;;16.69;71.85;101581.50;5111812;28;20031;-56
2022/08/27 02:15:28;;;;;;;9.77;4.53;;;;;;;16.67;72.12;101582.56;5112704;28;20023;-56
2022/08/27 02:17:54;;;;;;;9.75;4.82;;;;;;;16.60;72.42;101584.03;5112302;28;20065;-56
2022/08/27 02:20:21;;;;;;;7.35;4.68;;;;;;;16.54;72.22;101583.53;5112747;28;20020;-56
2022/08/27 02:22:48;;;;;;;7.63;4.28;;;;;;;16.52;72.40;101580.09;5112443;28;20385;-56
2022/08/27 02:25:15;;;;;;;9.38;4.40;;;;;;;16.44;72.75;101569.09;5112398;28;20036;-56
2022/08/27 02:27:41;;;;;;;5.00;4.03;;;;;;;16.52;72.57;101568.50;5111122;28;20065;-56
2022/08/27 02:30:10;;;;;;;6.38;4.53;;;;;;;16.45;72.54;101576.16;5111942;28;20034;-56
2022/08/27 02:32:36;;;;;;;7.30;4.43;;;;;;;16.34;73.03;101571.59;5112391;28;20031;-56
2022/08/27 02:35:03;;;;;;;8.38;5.03;;;;;;;16.35;72.76;101569.78;5112057;28;20361;-56
2022/08/27 02:37:28;;;;;;;8.85;4.78;;;;;;;16.31;73.20;101566.47;5111059;28;20245;-56
2022/08/27 02:39:54;;;;;;;6.80;4.40;;;;;;;16.44;72.47;101562.84;5112068;28;20039;-56
2022/08/27 02:42:22;;;;;;;5.97;4.60;;;;;;;16.45;72.50;101569.94;5112117;28;20020;-56
2022/08/27 02:44:48;;;;;;;8.15;5.07;;;;;;;16.43;72.68;101567.38;5127296;27;20023;-56
2022/08/27 02:47:15;;;;;;;9.75;4.72;;;;;;;16.35;72.83;101573.34;5110911;28;20081;-56
2022/08/27 02:49:41;;;;;;;7.97;5.47;;;;;;;16.28;73.29;101568.53;5111209;28;20036;-56
2022/08/27 02:52:07;;;;;;;9.73;4.93;;;;;;;16.25;73.21;101568.78;5093959;28;20050;-56
2022/08/27 02:54:37;;;;;;;7.07;4.55;;;;;;;16.24;73.76;101575.13;5145156;27;20031;-56
2022/08/27 02:57:02;;;;;;;9.98;5.15;;;;;;;16.29;73.48;101570.25;5111784;28;20490;-56
2022/08/27 02:59:28;;;;;;;7.50;5.20;;;;;;;16.34;73.42;101565.38;5110153;28;20150;-56
2022/08/27 03:01:55;;;;;;;8.50;5.75;;;;;;;16.37;73.60;101569.69;5110914;28;20073;-56
2022/08/27 03:04:22;;;;;;;10.25;5.88;;;;;;;16.39;73.97;101571.28;5127602;28;20032;-56
2022/08/27 03:06:48;;;;;;;6.40;5.80;;;;;;;16.35;74.08;101581.41;5110656;28;20493;-56
2022/08/27 03:09:14;;;;;;;10.95;5.40;;;;;;;16.37;73.86;101570.53;5110614;28;20020;-56
2022/08/27 03:11:40;;;;;;;8.05;5.43;;;;;;;16.25;74.22;101558.88;5109932;28;20034;-56
2022/08/27 03:14:06;;;;;;;9.43;5.43;;;;;;;16.44;74.10;101570.91;5110266;28;20065;-56
2022/08/27 03:16:36;;;;;;;10.73;5.82;;;;;;;16.44;74.02;101562.84;5111970;28;20023;-56
2022/08/27 03:19:05;;;;;;;8.05;5.68;;;;;;;16.45;74.00;101564.59;5111735;28;20112;-56
2022/08/27 03:21:30;;;;;;;7.88;5.25;;;;;;;16.47;74.06;101573.34;5112019;28;20020;-56
2022/08/27 03:24:00;;;;;;;9.65;5.18;;;;;;;16.47;73.90;101570.66;5144853;27;20034;-56
2022/08/27 03:26:26;;;;;;;;;;;;;;;16.66;72.87;101575.50;5112203;28;20054;-56
2022/08/27 03:28:52;;;;;;;8.02;5.60;;;;;;;16.53;73.56;101571.09;5113003;28;20404;-56
2022/08/27 03:31:25;;;;;;;9.80;5.35;;;;;;;16.57;73.80;101577.06;5114792;28;20064;-56
2022/08/27 03:33:56;;;;;;;10.23;5.65;;;;;;;16.54;73.93;101572.78;5115726;28;20457;-56
2022/08/27 03:36:22;;;;;;;9.98;5.88;;;;;;;16.49;74.14;101568.72;5115793;28;20478;-56
2022/08/27 03:38:47;;;;;;;7.93;5.55;;;;;;;16.44;74.09;101573.59;5114237;28;20037;-56
2022/08/27 03:41:18;;;;;;;8.00;5.03;;;;;;;16.26;74.83;101562.41;5131403;27;20444;-56
2022/08/27 03:43:44;;;;;;;9.68;5.35;;;;;;;16.32;74.36;101556.59;5115272;28;20035;-56
2022/08/27 03:46:10;;;;;;;9.93;5.55;;;;;;;16.40;74.08;101581.03;5115377;28;20028;-56
2022/08/27 03:48:35;;;;;;;8.90;4.85;;;;;;;16.35;74.38;101576.03;5113970;28;20038;-56
2022/08/27 03:51:10;;;;;;;10.23;5.70;;;;;;;16.35;74.67;101580.50;5114170;28;20035;-56
2022/08/27 03:53:39;;;;;;;10.43;5.55;;;;;;;16.34;74.64;101582.34;5115484;28;20107;-56
2022/08/27 03:56:07;;;;;;;8.35;5.75;;;;;;;16.29;74.74;101578.28;5114099;28;20519;-56
2022/08/27 03:58:33;;;;;;;9.48;5.70;;;;;;;16.35;74.79;101581.41;5113238;28;20573;-56
2022/08/27 04:00:59;;;;;;;8.73;5.40;;;;;;;16.40;74.62;101575.66;5113857;28;20047;-56
2022/08/27 04:03:25;;;;;;;9.75;5.63;;;;;;;16.42;74.62;101578.25;5113850;28;20065;-56
2022/08/27 04:05:55;;;;;;;9.88;5.35;;;;;;;16.42;74.40;101571.03;5096698;28;20031;-56
2022/08/27 04:08:22;;;;;;;7.53;5.70;;;;;;;16.42;74.32;101575.56;5115020;28;20533;-56
2022/08/27 04:10:48;;;;;;;8.75;5.72;;;;;;;16.34;74.79;101576.13;5115023;28;20112;-56
2022/08/27 04:13:13;;;;;;;7.32;5.53;;;;;;;16.39;74.50;101576.66;5114700;28;20099;-56
2022/08/27 04:15:43;;;;;;;10.95;6.10;;;;;;;16.34;74.94;101579.66;5114729;28;20054;-56
2022/08/27 04:18:11;;;;;;;9.85;5.63;;;;;;;16.30;74.72;101569.28;5114835;28;20111;-56
2022/08/27 04:20:37;;;;;;;6.60;5.18;;;;;;;16.25;74.96;101572.31;5113647;28;20050;-56
2022/08/27 04:23:03;;;;;;;12.05;6.47;;;;;;;16.30;74.78;101566.59;5113489;28;20447;-56
2022/08/27 04:25:29;;;;;;;9.48;5.80;;;;;;;16.26;74.71;101565.97;5113423;28;20118;-56
2022/08/27 04:27:54;;;;;;;10.45;6.05;;;;;;;16.21;74.87;101565.47;5113389;28;20038;-56
2022/08/27 04:30:22;;;;;;;12.38;5.93;;;;;;;16.17;74.95;101573.84;5112650;28;20144;-56
2022/08/27 04:32:47;;;;;;;10.85;5.63;;;;;;;16.19;74.83;101575.47;5113347;28;20016;-56
2022/08/27 04:35:13;;;;;;;8.48;5.22;;;;;;;16.13;75.26;101571.41;5114717;28;20042;-56
2022/08/27 04:37:39;;;;;;;9.48;5.70;;;;;;;16.17;74.60;101571.16;5114157;28;20443;-56
2022/08/27 04:40:08;;;;;;;9.55;5.38;;;;;;;16.01;75.46;101572.31;5095854;28;20046;-56
2022/08/27 04:42:34;;;;;;;12.93;5.95;;;;;;;15.95;75.69;101574.63;5114573;28;20114;-56
2022/08/27 04:45:01;;;;;;;8.20;5.85;;;;;;;15.98;75.51;101583.28;5113616;27;20453;-56
2022/08/27 04:47:27;;;;;;;11.57;6.03;;;;;;;15.90;76.15;101583.00;5112989;28;20055;-56
2022/08/27 04:49:55;;;;;;;10.35;5.82;;;;;;;15.92;76.08;101585.56;5114251;28;20020;-56
2022/08/27 04:52:22;;;;;;;9.60;6.18;;;;;;;15.94;76.21;101592.50;5112872;28;20051;-56
2022/08/27 04:54:49;;;;;;;7.72;5.57;;;;;;;15.92;76.47;101580.22;5114251;28;20054;-56
2022/08/27 04:57:15;;;;;;;11.68;5.70;;;;;;;15.92;76.66;101585.56;5114158;28;20032;-56
2022/08/27 04:59:41;;;;;;;12.23;6.15;;;;;;;15.95;77.03;101582.66;5112231;27;20059;-56
2022/08/27 05:02:11;;;;;;;8.05;5.53;;;;;;;16.00;77.15;101589.41;5113972;28;20050;-56
2022/08/27 05:04:39;;;;;;;9.75;6.78;;;;;;;16.01;77.25;101590.25;5113882;28;20066;-56
2022/08/27 05:07:05;;;;;;;12.52;6.25;;;;;;;16.06;76.94;101598.78;5113528;28;20123;-56
2022/08/27 05:09:31;;;;;;;11.80;6.47;;;;;;;16.10;76.58;101587.72;5112499;28;20073;-56
2022/08/27 05:11:57;;;;;;;9.13;6.07;;;;;;;16.11;76.83;101596.63;5112501;28;20023;-56
2022/08/27 05:14:24;;;;;;;12.20;6.85;;;;;;;16.12;76.98;101587.63;5111902;28;20034;-56
2022/08/27 05:16:50;;;;;;;11.77;6.32;;;;;;;16.19;76.79;101580.81;5112578;28;20049;-56
2022/08/27 05:19:16;;;;;;;10.77;6.22;;;;;;;16.09;77.44;101596.78;5113531;27;20496;-56
2022/08/27 05:21:49;;;;;;;12.18;6.90;;;;;;;16.18;77.42;101588.97;5112293;28;20118;-56
2022/08/27 05:24:16;;;;;;;12.80;6.40;;;;;;;16.22;77.40;101591.34;5113447;28;20031;-56
2022/08/27 05:26:45;;;;;;;10.57;6.90;;;;;;;16.18;78.02;101587.19;5112301;28;20111;-56
2022/08/27 05:29:13;;;;;;;12.05;6.80;;;;;;;16.32;77.79;101589.69;5112952;28;20072;-56
2022/08/27 05:31:42;;;;;;;11.57;7.15;;;;;;;16.31;77.67;101595.16;5113509;28;20043;-56
2022/08/27 05:34:10;;;;;;;10.63;7.10;;;;;;;16.35;77.67;101588.56;5113264;28;20015;-56
2022/08/27 05:36:39;;;;;;;11.50;7.57;;;;;;;16.40;77.41;101589.09;5113108;28;20449;-56
2022/08/27 05:39:06;;;;;;;12.88;7.25;;;;;;;16.40;77.65;101594.44;5111723;28;20024;-56
2022/08/27 05:41:32;;;;;;;12.48;7.00;;;;;;;16.42;77.69;101600.56;5113381;28;20154;-56
2022/08/27 05:44:00;;;;;;;13.10;7.43;;;;;;;16.46;77.76;101601.19;5112779;28;20031;-56
2022/08/27 05:46:28;;;;;;;12.97;7.10;;;;;;;16.54;77.40;101602.31;5113106;28;20535;-56
2022/08/27 05:48:58;;;;;;;9.25;6.93;;;;;;;16.56;77.38;101600.38;5112910;27;20296;-56
2022/08/27 05:51:32;;;;;;;15.18;6.50;;;;;;;16.60;77.31;101598.31;5112353;28;20386;-56
2022/08/27 05:54:01;;;;;;;9.90;6.53;;;;;;;16.61;77.31;101599.16;5112899;28;20044;-56
2022/08/27 05:56:29;;;;;;;12.50;6.72;;;;;;;16.51;77.85;101599.03;5113078;27;20062;-56
2022/08/27 06:01:45;;;;;;;11.75;7.63;;;;;;;16.66;77.82;101599.69;5113183;28;20050;-56
2022/08/27 06:04:12;;;;;;;12.23;7.63;;;;;;;16.64;77.76;101593.56;5113080;28;20016;-56
2022/08/27 06:06:40;;;;;;;10.50;6.57;;;;;;;16.70;77.86;101602.00;5111318;28;20024;-56
2022/08/27 06:09:07;;;;;;;11.82;7.32;;;;;;;16.76;77.43;101608.75;5111230;28;20432;-56
2022/08/27 06:11:33;;;;;;;14.52;7.05;;;;;;;16.79;77.33;101612.09;5112662;28;20027;-56
2022/08/27 06:14:02;;;;;;;13.32;7.22;;;;;;;16.76;77.27;101620.34;5111011;28;20370;-56
2022/08/27 06:16:27;;;;;;;14.00;8.50;;;;;;;16.83;76.72;101618.06;5112691;28;20031;-56
2022/08/27 06:18:53;;;;;;;11.70;7.10;;;;;;;16.85;77.72;101624.16;5111089;28;20624;-56
2022/08/27 06:21:19;;;;;;;15.50;7.57;;;;;;;16.86;77.74;101622.38;5093960;28;20393;-56
2022/08/27 06:23:46;;;;;;;14.63;7.78;;;;;;;16.84;77.57;101617.09;5111291;28;20124;-56
2022/08/27 06:26:13;;;;;;;16.17;8.10;;;;;;;16.86;77.71;101611.63;5111126;28;20042;-56
2022/08/27 06:28:42;;;;;;;11.38;6.93;;;;;;;16.79;77.67;101620.16;5111883;28;20561;-56
2022/08/27 06:31:20;;;;;;;11.02;7.90;;;;;;;16.86;77.58;101611.63;5094444;28;20028;-56
2022/08/27 06:33:46;;;;;;;9.88;7.05;;;;;;;16.88;77.33;101610.50;5112403;28;20027;-56
2022/08/27 06:36:15;;;;;;;10.98;7.78;;;;;;;16.93;77.55;101616.38;5112326;28;20416;-56
2022/08/27 06:38:44;;;;;;;16.85;7.38;;;;;;;16.96;76.69;101612.59;5111000;28;20035;-56
2022/08/27 06:41:11;;;;;;;13.23;7.88;;;;;;;16.96;77.56;101620.66;5112173;28;20116;-56
2022/08/27 06:43:39;;;;;;;11.95;7.75;;;;;;;17.02;77.21;101618.34;5110423;28;20022;-56
2022/08/27 06:46:07;;;;;;;18.02;7.88;;;;;;;17.05;77.30;101621.78;5110863;28;20400;-56
2022/08/27 06:48:33;;;;;;;12.73;7.78;;;;;;;17.13;76.86;101620.19;5111845;28;20084;-56
2022/08/27 06:51:01;;;;;;;11.23;7.32;;;;;;;17.14;76.83;101621.91;5110783;28;20555;-56
2022/08/27 06:53:29;;;;;;;11.00;7.63;;;;;;;17.09;77.15;101621.44;5112679;28;20028;-56
2022/08/27 06:55:55;;;;;;;14.25;7.85;;;;;;;17.17;77.17;101618.13;5128505;27;20051;-56
2022/08/27 06:58:21;;;;;;;11.90;7.18;;;;;;;17.15;76.87;101612.03;5111426;28;20426;-56
2022/08/27 07:00:46;;;;;;;13.98;7.80;;;;;;;17.23;77.13;101612.25;5093876;28;20479;-56
2022/08/27 07:03:11;;;;;;;9.82;6.82;;;;;;;17.20;77.34;101610.66;5111027;28;20035;-56
2022/08/27 07:05:38;;;;;;;12.43;7.50;;;;;;;17.21;77.42;101623.16;5116248;28;20023;-55
2022/08/27 07:08:06;;;;;;;12.15;7.25;;;;;;;17.25;77.37;101616.53;5115961;28;20032;-56
2022/08/27 07:10:31;;;;;;;13.32;7.10;;;;;;;17.32;77.77;101618.75;5116146;28;20020;-56
2022/08/27 07:12:57;;;;;;;14.45;6.70;;;;;;;17.37;76.37;101620.09;5115627;28;20369;-56
2022/08/27 07:15:23;;;;;;;11.50;6.80;;;;;;;17.39;76.17;101623.53;5116086;28;20470;-56
2022/08/27 07:17:50;;;;;;;15.95;7.15;;;;;;;17.36;75.99;101621.09;5115701;28;20364;-56
2022/08/27 07:20:17;;;;;;;13.05;6.72;;;;;;;17.43;76.34;101624.13;5114649;28;20053;-56
2022/08/27 07:22:44;;;;;;;13.77;6.90;;;;;;;17.52;75.55;101623.38;5116068;28;20401;-56
2022/08/27 07:25:13;;;;;;;11.48;6.68;;;;;;;17.58;75.72;101630.13;5115487;28;20035;-56
2022/08/27 07:27:39;;;;;;;11.20;6.05;;;;;;;17.68;75.72;101625.72;5114642;28;20023;-56
2022/08/27 07:30:09;;;;;;;11.65;5.90;;;;;;;17.75;74.95;101631.47;5115152;28;20031;-56
2022/08/27 07:32:34;;;;;;;11.93;6.25;;;;;;;17.80;74.77;101630.13;5115581;28;20019;-56
2022/08/27 07:35:00;;;;;;;13.23;6.40;;;;;;;17.86;74.16;101628.78;5115643;28;20164;-56
2022/08/27 07:37:26;;;;;;;11.27;5.82;;;;;;;17.93;74.17;101630.84;5097399;28;20079;-56
2022/08/27 07:39:51;;;;;;;14.50;5.75;;;;;;;17.95;73.81;101635.25;5114080;28;20024;-57
2022/08/27 07:45:01;;;;;;;6.90;5.10;;;;;;;18.08;71.77;101638.63;5113877;28;20122;-57
2022/08/27 07:47:26;;;;;;;8.90;5.38;;;;;;;18.03;71.57;101632.78;5113808;28;20498;-56
2022/08/27 07:49:54;;;;;;;7.97;5.10;;;;;;;17.97;71.18;101644.03;5113831;28;20039;-57
2022/08/27 07:52:20;;;;;;;8.18;4.95;;;;;;;17.95;71.23;101644.19;5113981;28;20463;-56
2022/08/27 07:54:46;;;;;;;8.02;5.03;;;;;;;17.95;71.69;101643.34;5096825;28;20034;-56
2022/08/27 07:57:12;;;;;;;12.63;6.13;;;;;;;17.88;71.81;101645.66;5114184;28;20058;-56
2022/08/27 07:59:37;;;;;;;11.85;5.82;;;;;;;17.95;71.41;101648.72;5112481;28;20063;-56
2022/08/27 08:02:03;;;;;;;11.50;5.68;;;;;;;18.05;72.10;101644.28;5113540;28;20027;-56
2022/08/27 08:04:29;;;;;;;8.57;5.50;;;;;;;18.17;72.00;101644.13;5113895;28;20031;-56
2022/08/27 08:06:55;;;;;;;14.68;5.50;;;;;;;18.40;70.84;101652.13;5129310;27;20386;-56
2022/08/27 08:09:22;;;;;;;11.02;5.63;;;;;;;18.48;69.30;101644.28;5113409;28;20393;-57
2022/08/27 08:11:49;;;;;;;7.70;6.03;;;;;;;18.58;69.96;101647.03;5113796;28;20027;-57
2022/08/27 08:14:15;;;;;;;12.30;5.82;;;;;;;18.67;69.23;101640.00;5112954;28;20027;-56
2022/08/27 08:16:40;;;;;;;7.75;5.30;;;;;;;18.92;68.85;101650.47;5113724;28;20016;-56
2022/08/27 08:19:07;;;;;;;8.27;5.45;;;;;;;19.08;68.86;101649.13;5112188;28;20114;-57
2022/08/27 08:21:33;;;;;;;7.45;4.95;;;;;;;19.26;67.47;101640.28;5113586;28;20072;-56
2022/08/27 08:24:01;;;;;;;9.50;5.20;;;;;;;19.45;66.68;101649.50;5112242;28;20023;-56
2022/08/27 08:26:27;;;;;;;10.33;4.90;;;;;;;19.75;65.22;101654.03;5095361;28;20110;-57
2022/08/27 08:28:52;;;;;;;7.75;4.40;;;;;;;19.87;63.38;101647.53;5112938;28;20367;-57
2022/08/27 08:31:19;;;;;;;8.98;4.60;;;;;;;20.07;63.18;101658.41;5113306;28;20039;-57
2022/08/27 08:33:47;;;;;;;9.20;4.22;;;;;;;20.23;62.86;101653.28;5113444;28;20019;-56
2022/08/27 08:36:14;;;;;;;12.40;4.25;;;;;;;20.37;61.75;101657.44;5112172;28;20061;-57
2022/08/27 08:38:43;;;;;;;8.20;3.83;;;;;;;20.46;60.94;101650.34;5113458;28;20019;-56
2022/08/27 08:41:27;;;;;;;10.50;4.68;;;;;;;20.68;61.06;101660.91;5111928;28;20047;-57
2022/08/27 08:43:55;;;;;;;7.03;4.10;;;;;;;20.68;59.96;101660.03;5112692;28;20152;-56
2022/08/27 08:46:36;;;;;;;12.20;4.90;;;;;;;20.90;60.36;101656.19;5112718;28;20131;-57
2022/08/27 08:49:15;;;;;;;10.02;4.15;;;;;;;21.07;57.91;101653.59;5113037;28;20024;-57
2022/08/27 08:51:41;;;;;;;9.57;4.32;;;;;;;21.17;58.17;101650.88;5112036;28;20099;-57
2022/08/27 08:54:12;;;;;;;11.40;4.55;;;;;;;21.17;58.52;101653.56;5112914;28;20031;-57
2022/08/27 08:56:53;;;;;;;8.77;3.88;;;;;;;21.53;58.63;101653.75;5111924;28;20050;-57
2022/08/27 08:59:33;;;;;;;7.40;4.40;;;;;;;21.82;55.87;101659.06;5066572;28;1268589;-56
2022/08/27 09:02:01;;;;;;;8.05;4.20;;;;;;;21.91;55.39;101654.59;5114002;28;20115;-57
2022/08/27 09:04:28;;;;;;;6.65;3.90;;;;;;;22.05;54.77;101661.38;5113866;28;20063;-57
2022/08/27 09:07:01;;;;;;;6.88;4.20;;;;;;;22.28;54.01;101664.53;5112623;28;20028;-56
2022/08/27 09:09:51;;;;;;;7.95;4.32;;;;;;;22.38;53.58;101654.47;5112327;28;20039;-56
2022/08/27 09:12:24;;;;;;;5.88;3.30;;;;;;;22.56;52.19;101654.47;5113788;28;20059;-57
2022/08/27 09:15:01;;;;;;;9.52;4.10;;;;;;;22.74;51.90;101668.88;5113099;28;20030;-57
2022/08/27 09:17:26;;;;;;;8.25;3.15;;;;;;;22.54;50.81;101665.47;5112381;28;20103;-57
2022/08/27 09:19:54;;;;;;;6.38;2.83;;;;;;;22.35;52.74;101662.91;5111962;28;20118;-56
2022/08/27 09:22:38;;;;;;;5.70;2.15;;;;;;;22.11;51.78;101666.16;5129777;27;20502;-56
2022/08/27 09:25:13;;;;;;;5.45;2.30;;;;;;;21.75;52.21;101666.09;5113420;28;20546;-57
2022/08/27 09:27:41;;;;;;;5.00;1.92;;;;;;;21.61;52.08;101666.56;5112775;28;20027;-56
2022/08/27 09:30:19;;;;;;;4.85;2.40;;;;;;;21.66;52.13;101667.84;5111301;28;20107;-57
2022/08/27 09:33:03;;;;;;;5.95;2.67;;;;;;;21.64;52.67;101660.84;5113543;28;20028;-57
2022/08/27 09:35:39;;;;;;;4.35;2.30;;;;;;;21.89;51.50;101662.88;5112235;28;20027;-57
2022/08/27 09:38:04;;;;;;;6.95;2.58;;;;;;;22.18;51.13;101657.31;5112959;28;20457;-56
2022/08/27 09:40:48;;;;;;;7.88;2.40;;;;;;;22.30;50.65;101666.09;5113167;28;20055;-57
2022/08/27 09:43:16;;;;;;;8.30;3.08;;;;;;;22.18;51.09;101661.91;5112395;28;20122;-56
2022/08/27 09:45:53;;;;;;;6.63;2.67;;;;;;;22.08;50.70;101666.47;5113143;28;20081;-57
2022/08/27 09:48:29;;;;;;;4.93;2.60;;;;;;;21.87;51.04;101664.03;5113081;28;20055;-57
2022/08/27 09:51:01;;;;;;;7.47;2.72;;;;;;;21.98;51.27;101653.84;5112956;28;20102;-57
2022/08/27 09:53:46;;;;;;;5.53;2.60;;;;;;;22.39;51.00;101662.44;5112803;28;20035;-57
2022/08/27 09:56:47;;;;;;;3.88;2.45;;;;;;;22.81;50.40;101669.94;5111716;28;20534;-57
2022/08/27 09:59:25;;;;;;;7.25;2.72;;;;;;;23.06;48.67;101672.88;5101308;28;20043;-56
2022/08/27 10:02:01;;;;;;;5.43;2.50;;;;;;;23.29;47.46;101674.06;5112871;28;20085;-57
2022/08/27 10:04:34;;;;;;;6.85;2.55;;;;;;;23.41;47.56;101676.50;5111305;28;20024;-57
2022/08/27 10:07:17;;;;;;;6.85;2.58;;;;;;;23.69;47.93;101667.16;5111609;28;20059;-56
2022/08/27 10:09:51;;;;;;;6.78;2.40;;;;;;;23.89;46.40;101669.66;5112683;28;20478;-57
2022/08/27 10:12:17;;;;;;;5.07;2.22;;;;;;;23.88;45.92;101666.06;5111081;28;20016;-56
2022/08/27 10:14:51;;;;;;;5.25;2.40;;;;;;;23.79;46.24;101656.19;5110950;28;20031;-57
2022/08/27 10:17:35;;;;;;;7.05;2.33;;;;;;;23.85;45.50;101665.56;5111261;28;20027;-57
2022/08/27 10:20:17;;;;;;;6.03;2.45;;;;;;;23.64;45.97;101657.78;5112463;28;20028;-57
2022/08/27 10:23:17;;;;;;;6.25;2.60;;;;;;;23.81;46.06;101656.88;5111462;28;20099;-56
2022/08/27 10:26:04;;;;;;;4.40;1.90;;;;;;;23.88;45.44;101655.19;5112703;28;20382;-56
2022/08/27 10:28:52;;;;;;;5.22;2.42;;;;;;;23.65;46.11;101654.06;5111905;28;20046;-56
2022/08/27 10:31:38;;;;;;;4.50;2.53;;;;;;;23.56;46.59;101648.59;5111046;28;20474;-56
2022/08/27 10:34:29;;;;;;;4.65;2.50;;;;;;;23.80;47.01;101647.03;5112320;28;20474;-56
2022/08/27 10:37:13;;;;;;;5.68;2.30;;;;;;;24.00;46.60;101647.59;5112037;28;20494;-56
2022/08/27 10:40:21;;;;;;;5.35;2.60;;;;;;;23.92;45.27;101644.88;5112435;28;20031;-56
2022/08/27 10:43:01;;;;;;;5.97;2.67;;;;;;;23.70;45.68;101643.59;5110661;28;20549;-57
2022/08/27 10:45:45;;;;;;;5.95;2.40;;;;;;;23.45;47.44;101646.16;5111254;28;20525;-56
2022/08/27 10:48:29;;;;;;;5.30;2.65;;;;;;;23.39;47.91;101641.38;5110891;28;20023;-56
2022/08/27 10:51:11;;;;;;;5.25;2.50;;;;;;;23.40;47.37;101643.06;5110930;28;20030;-57
2022/08/27 10:53:40;;;;;;;5.07;2.35;;;;;;;23.26;47.35;101624.66;5111864;28;20023;-57
2022/08/27 10:57:04;;;;;;;4.30;2.65;;;;;;;23.34;47.63;101647.28;5111742;28;20421;-56
2022/08/27 10:59:39;;;;;;;6.13;2.65;;;;;;;23.04;47.63;101643.19;5068550;28;20507;-56
2022/08/27 11:02:26;;;;;;;6.88;2.47;;;;;;;22.94;48.56;101652.41;5069234;28;20620;-56
2022/08/27 11:05:11;;;;;;;5.53;2.50;;;;;;;22.79;48.84;101643.97;5090233;28;20024;-57
2022/08/27 11:07:40;;;;;;;6.00;2.58;;;;;;;22.68;48.56;101648.66;5112048;28;20428;-56
2022/08/27 11:10:20;;;;;;;6.32;2.53;;;;;;;22.67;48.99;101643.38;5111680;28;20031;-56
2022/08/27 11:12:51;;;;;;;4.00;2.45;;;;;;;22.56;48.83;101646.31;5110734;28;20035;-57
2022/08/27 11:15:23;;;;;;;4.28;2.22;;;;;;;22.43;48.72;101646.72;5111980;28;20381;-56
2022/08/27 11:18:16;;;;;;;4.97;2.30;;;;;;;22.52;48.80;101650.38;5110640;28;20023;-56
2022/08/27 11:21:06;;;;;;;7.55;2.42;;;;;;;22.41;49.52;101643.31;5112002;28;20030;-56
2022/08/27 11:23:40;;;;;;;6.82;2.30;;;;;;;22.53;50.08;101646.63;5111845;28;20027;-56
2022/08/27 11:26:11;;;;;;;6.28;2.10;;;;;;;22.41;49.18;101636.06;5111602;28;20074;-56
2022/08/27 11:28:57;;;;;;;4.47;2.10;;;;;;;22.39;49.12;101642.63;5111820;28;20126;-56
2022/08/27 11:31:31;;;;;;;6.43;1.92;;;;;;;22.41;49.71;101641.47;5111750;28;20080;-56
2022/08/27 11:34:09;;;;;;;4.75;2.13;;;;;;;22.61;50.24;101631.28;5111614;28;20069;-56
2022/08/27 11:37:03;;;;;;;5.20;2.10;;;;;;;22.76;49.49;101628.88;5111886;28;20107;-56
2022/08/27 11:40:00;;;;;;;6.13;2.42;;;;;;;23.18;49.64;101630.03;5097514;28;20047;-56
2022/08/27 11:42:41;;;;;;;5.07;2.08;;;;;;;23.41;47.81;101630.34;5110342;28;20027;-56